createdAt,value
2022-09-15T00:01:17.194Z,99693.72
2022-09-15T00:03:45.645Z,99690.47
2022-09-15T00:06:14.649Z,99692.12
2022-09-15T00:08:42.727Z,99697.47
2022-09-15T00:11:20.591Z,99700.94
2022-09-15T00:13:49.463Z,99698.25
2022-09-15T00:16:18.933Z,99702.13
2022-09-15T00:18:47.460Z,99700.88
2022-09-15T00:21:18.790Z,99703.09
2022-09-15T00:23:48.146Z,99696.47
2022-09-15T00:26:19.876Z,99700.56
2022-09-15T00:28:48.553Z,99693.81
2022-09-15T00:31:18.783Z,99690.50
2022-09-15T00:33:48.528Z,99697.00
2022-09-15T00:36:17.561Z,99698.66
2022-09-15T00:38:45.352Z,99699.47
2022-09-15T00:41:16.034Z,99701.09
2022-09-15T00:43:46.745Z,99705.59
2022-09-15T00:46:16.677Z,99704.00
2022-09-15T00:48:52.676Z,99712.00
2022-09-15T00:51:24.440Z,99715.50
2022-09-15T00:53:53.468Z,99715.50
2022-09-15T00:56:22.901Z,99714.91
2022-09-15T00:58:56.952Z,99718.84
2022-09-15T01:01:27.684Z,99713.72
2022-09-15T01:03:56.464Z,99710.22
2022-09-15T01:06:34.056Z,99705.56
2022-09-15T01:09:26.168Z,99707.62
2022-09-15T01:11:54.256Z,99693.53
2022-09-15T01:14:22.157Z,99713.41
2022-09-15T01:17:03.925Z,99705.03
2022-09-15T01:19:51.473Z,99700.72
2022-09-15T01:22:53.524Z,99692.31
2022-09-15T01:25:52.601Z,99696.84
2022-09-15T01:29:03.824Z,99689.88
2022-09-15T01:32:18.796Z,99664.78
2022-09-15T01:35:00.745Z,99662.09
2022-09-15T01:37:34.435Z,99661.06
2022-09-15T01:40:04.985Z,99646.25
2022-09-15T01:42:34.872Z,99642.50
2022-09-15T01:45:12.036Z,99650.91
2022-09-15T01:47:40.877Z,99640.28
2022-09-15T01:50:33.205Z,99657.66
2022-09-15T01:53:04.122Z,99671.16
2022-09-15T01:55:54.023Z,99666.56
2022-09-15T01:58:22.701Z,99672.72
2022-09-15T02:01:08.790Z,99673.91
2022-09-15T02:03:50.333Z,99676.50
2022-09-15T02:06:45.528Z,99678.28
2022-09-15T02:09:21.531Z,99683.38
2022-09-15T02:12:19.979Z,99683.75
2022-09-15T02:14:56.987Z,99685.53
2022-09-15T02:17:29.216Z,99683.44
2022-09-15T02:20:09.092Z,99690.19
2022-09-15T02:22:40.863Z,99683.44
2022-09-15T02:25:13.275Z,99698.22
2022-09-15T02:27:46.083Z,99696.37
2022-09-15T02:30:17.829Z,99698.22
2022-09-15T02:32:56.768Z,99695.09
2022-09-15T02:35:28.704Z,99692.66
2022-09-15T02:37:58.563Z,99693.50
2022-09-15T02:40:28.898Z,99699.06
2022-09-15T02:42:58.840Z,99694.53
2022-09-15T02:45:27.195Z,99696.37
2022-09-15T02:47:54.718Z,99700.44
2022-09-15T02:50:22.415Z,99698.84
2022-09-15T02:52:50.296Z,99702.53
2022-09-15T02:55:18.267Z,99704.84
2022-09-15T02:57:46.127Z,99718.53
2022-09-15T03:00:19.062Z,99720.31
2022-09-15T03:02:52.647Z,99718.37
2022-09-15T03:05:25.076Z,99723.56
2022-09-15T03:07:53.381Z,99732.75
2022-09-15T03:10:24.005Z,99733.87
2022-09-15T03:12:53.993Z,99725.72
2022-09-15T03:15:24.458Z,99730.53
2022-09-15T03:17:53.539Z,99719.72
2022-09-15T03:20:24.226Z,99722.91
2022-09-15T03:22:52.351Z,99723.97
2022-09-15T03:25:20.888Z,99720.13
2022-09-15T03:27:48.640Z,99716.63
2022-09-15T03:30:16.751Z,99709.88
2022-09-15T03:32:44.571Z,99709.66
2022-09-15T03:35:12.797Z,99717.34
2022-09-15T03:37:40.853Z,99713.09
2022-09-15T03:40:10.718Z,99725.19
2022-09-15T03:42:38.543Z,99723.72
2022-09-15T03:45:07.522Z,99731.34
2022-09-15T03:47:35.365Z,99732.81
2022-09-15T03:50:03.307Z,99726.41
2022-09-15T03:52:31.983Z,99734.09
2022-09-15T03:54:59.830Z,99729.97
2022-09-15T03:57:27.543Z,99722.97
2022-09-15T03:59:55.677Z,99734.16
2022-09-15T04:02:23.416Z,99738.50
2022-09-15T04:04:51.653Z,99740.47
2022-09-15T04:07:19.755Z,99755.22
2022-09-15T04:09:47.463Z,99760.16
2022-09-15T04:12:15.449Z,99770.66
2022-09-15T04:14:43.473Z,99773.13
2022-09-15T04:17:11.654Z,99768.09
2022-09-15T04:19:40.663Z,99785.56
2022-09-15T04:22:08.508Z,99783.28
2022-09-15T04:24:36.522Z,99765.06
2022-09-15T04:27:04.707Z,99781.31
2022-09-15T04:29:32.768Z,99769.22
2022-09-15T04:32:00.774Z,99767.16
2022-09-15T04:34:29.005Z,99759.56
2022-09-15T04:36:57.005Z,99757.72
2022-09-15T04:39:25.569Z,99755.50
2022-09-15T04:41:54.696Z,99745.66
2022-09-15T04:44:22.456Z,99752.81
2022-09-15T04:46:50.384Z,99763.06
2022-09-15T04:49:18.877Z,99760.62
2022-09-15T04:51:47.087Z,99756.91
2022-09-15T04:54:14.798Z,99756.91
2022-09-15T04:56:42.711Z,99749.72
2022-09-15T04:59:16.115Z,99756.09
2022-09-15T05:01:44.710Z,99745.22
2022-09-15T05:04:12.639Z,99740.31
2022-09-15T05:06:40.387Z,99754.22
2022-09-15T05:09:10.412Z,99745.78
2022-09-15T05:11:38.787Z,99745.97
2022-09-15T05:14:07.044Z,99737.34
2022-09-15T05:16:35.391Z,99735.88
2022-09-15T05:19:04.554Z,99720.28
2022-09-15T05:21:32.600Z,99700.78
2022-09-15T05:24:00.998Z,99692.56
2022-09-15T05:26:30.152Z,99701.84
2022-09-15T05:28:58.000Z,99707.59
2022-09-15T05:31:29.194Z,99708.44
2022-09-15T05:33:57.328Z,99728.78
2022-09-15T05:36:25.429Z,99736.94
2022-09-15T05:38:56.510Z,99732.63
2022-09-15T05:41:25.255Z,99744.53
2022-09-15T05:43:55.145Z,99740.81
2022-09-15T05:46:26.080Z,99751.06
2022-09-15T05:48:57.155Z,99754.38
2022-09-15T05:51:25.577Z,99740.97
2022-09-15T05:53:53.307Z,99728.25
2022-09-15T05:56:22.483Z,99738.00
2022-09-15T05:58:50.327Z,99747.16
2022-09-15T06:01:21.531Z,99734.37
2022-09-15T06:03:50.592Z,99734.50
2022-09-15T06:06:19.260Z,99741.34
2022-09-15T06:08:52.861Z,99753.22
2022-09-15T06:11:26.414Z,99754.56
2022-09-15T06:13:54.413Z,99741.97
2022-09-15T06:16:24.066Z,99762.19
2022-09-15T06:18:53.645Z,99774.00
2022-09-15T06:21:23.599Z,99780.13
2022-09-15T06:23:56.283Z,99788.28
2022-09-15T06:26:25.679Z,99766.06
2022-09-15T06:28:55.972Z,99773.75
2022-09-15T06:31:26.092Z,99780.63
2022-09-15T06:33:56.022Z,99779.97
2022-09-15T06:36:26.820Z,99785.69
2022-09-15T06:38:55.465Z,99783.62
2022-09-15T06:41:23.680Z,99769.81
2022-09-15T06:43:52.329Z,99776.78
2022-09-15T06:46:23.279Z,99780.09
2022-09-15T06:48:53.412Z,99787.87
2022-09-15T06:51:23.415Z,99773.09
2022-09-15T06:53:53.444Z,99786.09
2022-09-15T06:56:22.753Z,99797.75
2022-09-15T06:58:50.986Z,99787.25
2022-09-15T07:01:28.161Z,99796.75
2022-09-15T07:03:57.400Z,99806.69
2022-09-15T07:06:29.320Z,99809.16
2022-09-15T07:08:58.536Z,99807.31
2022-09-15T07:11:26.620Z,99829.44
2022-09-15T07:13:54.518Z,99828.53
2022-09-15T07:16:22.749Z,99836.13
2022-09-15T07:18:50.784Z,99828.66
2022-09-15T07:21:20.334Z,99824.94
2022-09-15T07:23:49.828Z,99824.59
2022-09-15T07:26:23.854Z,99841.97
2022-09-15T07:28:59.158Z,99846.50
2022-09-15T07:31:31.168Z,99845.94
2022-09-15T07:34:05.636Z,99831.34
2022-09-15T07:36:49.419Z,99840.50
2022-09-15T07:39:17.831Z,99854.03
2022-09-15T07:41:46.064Z,99848.59
2022-09-15T07:44:14.224Z,99847.19
2022-09-15T07:46:41.897Z,99850.16
2022-09-15T07:49:10.507Z,99834.09
2022-09-15T07:51:38.279Z,99851.47
2022-09-15T07:54:07.051Z,99845.47
2022-09-15T07:56:34.948Z,99851.53
2022-09-15T07:59:02.850Z,99846.78
2022-09-15T08:01:30.701Z,99846.41
2022-09-15T08:03:59.070Z,99853.66
2022-09-15T08:06:26.967Z,99855.03
2022-09-15T08:08:59.951Z,99859.69
2022-09-15T08:11:29.537Z,99868.66
2022-09-15T08:14:01.363Z,99856.66
2022-09-15T08:16:29.630Z,99857.13
2022-09-15T08:18:57.281Z,99857.47
2022-09-15T08:21:25.821Z,99859.00
2022-09-15T08:23:56.739Z,99856.53
2022-09-15T08:26:26.544Z,99851.16
2022-09-15T08:28:54.923Z,99854.66
2022-09-15T08:31:24.304Z,99846.56
2022-09-15T08:33:55.038Z,99849.72
2022-09-15T08:36:24.557Z,99854.59
2022-09-15T08:38:52.371Z,99846.63
2022-09-15T08:41:39.898Z,99852.44
2022-09-15T08:44:19.404Z,99842.78
2022-09-15T08:46:46.985Z,99850.66
2022-09-15T08:49:47.398Z,99854.25
2022-09-15T08:52:38.622Z,99846.75
2022-09-15T08:55:18.101Z,99853.12
2022-09-15T08:57:46.185Z,99848.09
2022-09-15T09:00:16.688Z,99850.06
2022-09-15T09:02:58.981Z,99849.09
2022-09-15T09:06:03.631Z,99849.88
2022-09-15T09:09:04.030Z,99839.59
2022-09-15T09:11:54.259Z,99827.22
2022-09-15T09:14:54.405Z,99834.06
2022-09-15T09:17:51.296Z,99817.37
2022-09-15T09:20:40.436Z,99824.63
2022-09-15T09:23:13.753Z,99820.78
2022-09-15T09:25:43.799Z,99813.59
2022-09-15T09:28:32.139Z,99820.94
2022-09-15T09:31:15.603Z,99809.59
2022-09-15T09:33:53.459Z,99798.75
2022-09-15T09:36:21.514Z,99803.37
2022-09-15T09:38:50.708Z,99803.37
2022-09-15T09:41:26.894Z,99797.84
2022-09-15T09:43:56.360Z,99795.84
2022-09-15T09:46:24.276Z,99793.91
2022-09-15T09:48:58.286Z,99790.66
2022-09-15T09:51:36.104Z,99795.84
2022-09-15T09:54:16.197Z,99786.38
2022-09-15T09:56:44.844Z,99801.75
2022-09-15T09:59:31.448Z,99798.03
2022-09-15T10:02:15.744Z,99786.34
2022-09-15T10:04:55.839Z,99789.19
2022-09-15T10:07:26.279Z,99778.28
2022-09-15T10:10:00.092Z,99775.09
2022-09-15T10:12:34.114Z,99766.25
2022-09-15T10:15:06.088Z,99749.75
2022-09-15T10:17:37.133Z,99734.19
2022-09-15T10:20:20.067Z,99743.91
2022-09-15T10:22:48.035Z,99740.97
2022-09-15T10:25:22.135Z,99728.19
2022-09-15T10:28:08.379Z,99732.88
2022-09-15T10:30:37.660Z,99733.06
2022-09-15T10:33:26.776Z,99718.63
2022-09-15T10:36:03.839Z,99717.66
2022-09-15T10:38:48.962Z,99709.38
2022-09-15T10:41:28.848Z,99708.22
2022-09-15T10:44:26.250Z,99706.63
2022-09-15T10:47:00.940Z,99708.00
2022-09-15T10:49:48.408Z,99711.56
2022-09-15T10:52:25.306Z,99705.34
2022-09-15T10:55:24.676Z,99715.31
2022-09-15T10:58:12.400Z,99709.78
2022-09-15T11:01:00.397Z,99717.63
2022-09-15T11:03:50.475Z,99711.84
2022-09-15T11:06:27.856Z,99704.00
2022-09-15T11:09:09.311Z,99708.59
2022-09-15T11:11:49.700Z,99709.41
2022-09-15T11:14:37.466Z,99718.03
2022-09-15T11:17:29.831Z,99715.47
2022-09-15T11:20:15.748Z,99721.47
2022-09-15T11:23:11.604Z,99711.63
2022-09-15T11:25:44.500Z,99708.28
2022-09-15T11:28:36.052Z,99705.91
2022-09-15T11:31:16.991Z,99687.94
2022-09-15T11:34:09.861Z,99692.62
2022-09-15T11:36:44.370Z,99687.00
2022-09-15T11:39:22.468Z,99686.94
2022-09-15T11:42:04.755Z,99684.84
2022-09-15T11:44:37.172Z,99686.75
2022-09-15T11:47:09.269Z,99682.47
2022-09-15T11:49:45.521Z,99673.00
2022-09-15T11:52:35.211Z,99664.66
2022-09-15T11:55:39.348Z,99663.84
2022-09-15T11:58:29.385Z,99657.37
2022-09-15T12:01:07.808Z,99661.66
2022-09-15T12:03:45.878Z,99661.69
2022-09-15T12:06:24.718Z,99657.37
2022-09-15T12:08:58.423Z,99647.09
2022-09-15T12:11:28.879Z,99646.81
2022-09-15T12:13:58.302Z,99642.22
2022-09-15T12:16:27.637Z,99636.81
2022-09-15T12:19:26.562Z,99638.72
2022-09-15T12:22:01.907Z,99634.91
2022-09-15T12:24:45.829Z,99633.25
2022-09-15T12:27:16.895Z,99622.13
2022-09-15T12:29:53.413Z,99627.53
2022-09-15T12:32:34.849Z,99630.03
2022-09-15T12:35:04.613Z,99634.91
2022-09-15T12:37:42.215Z,99627.53
2022-09-15T12:40:33.112Z,99628.16
2022-09-15T12:43:03.379Z,99621.41
2022-09-15T12:45:36.190Z,99623.47
2022-09-15T12:48:23.345Z,99618.31
2022-09-15T12:50:58.873Z,99637.72
2022-09-15T12:53:51.650Z,99635.31
2022-09-15T12:56:28.480Z,99633.59
2022-09-15T12:59:06.586Z,99626.09
2022-09-15T13:01:48.528Z,99614.22
2022-09-15T13:04:42.102Z,99613.66
2022-09-15T13:07:15.708Z,99606.09
2022-09-15T13:09:57.080Z,99595.25
2022-09-15T13:12:35.919Z,99575.81
2022-09-15T13:15:13.192Z,99567.16
2022-09-15T13:17:46.664Z,99571.50
2022-09-15T13:20:23.169Z,99558.00
2022-09-15T13:22:56.367Z,99553.94
2022-09-15T13:25:30.249Z,99544.16
2022-09-15T13:28:02.872Z,99545.00
2022-09-15T13:31:03.418Z,99535.25
2022-09-15T13:39:59.578Z,99537.69
2022-09-15T13:42:54.245Z,99537.44
2022-09-15T13:45:48.437Z,99538.50
2022-09-15T13:48:38.057Z,99529.84
2022-09-15T13:51:15.545Z,99536.06
2022-09-15T13:53:56.497Z,99525.81
2022-09-15T13:56:35.590Z,99528.00
2022-09-15T13:59:14.177Z,99521.25
2022-09-15T14:01:43.053Z,99523.06
2022-09-15T14:04:17.242Z,99523.84
2022-09-15T14:06:48.805Z,99538.41
2022-09-15T14:09:27.739Z,99537.28
2022-09-15T14:12:05.175Z,99538.06
2022-09-15T14:14:44.898Z,99543.13
2022-09-15T14:17:29.822Z,99535.50
2022-09-15T14:20:00.834Z,99535.97
2022-09-15T14:22:30.412Z,99544.50
2022-09-15T14:25:00.502Z,99555.75
2022-09-15T14:27:34.539Z,99559.34
2022-09-15T14:30:07.978Z,99562.06
2022-09-15T14:32:39.968Z,99558.56
2022-09-15T14:35:16.086Z,99568.22
2022-09-15T14:37:58.243Z,99600.62
2022-09-15T14:40:35.911Z,99610.56
2022-09-15T14:43:23.221Z,99589.19
2022-09-15T14:45:55.701Z,99574.22
2022-09-15T14:48:28.133Z,99579.75
2022-09-15T14:51:13.309Z,99583.50
2022-09-15T14:53:43.417Z,99566.13
2022-09-15T14:56:19.158Z,99555.75
2022-09-15T14:58:50.936Z,99547.12
2022-09-15T15:01:30.303Z,99533.56
2022-09-15T15:04:10.385Z,99542.66
2022-09-15T15:06:50.804Z,99541.72
2022-09-15T15:09:47.113Z,99543.09
2022-09-15T15:12:30.460Z,99555.12
2022-09-15T15:15:00.808Z,99567.63
2022-09-15T15:17:42.928Z,99553.72
2022-09-15T15:20:10.871Z,99566.47
2022-09-15T15:22:41.703Z,99573.25
2022-09-15T15:25:32.644Z,99561.63
2022-09-15T15:28:04.776Z,99561.38
2022-09-15T15:30:45.827Z,99550.09
2022-09-15T15:33:25.159Z,99548.12
2022-09-15T15:36:11.844Z,99546.50
2022-09-15T15:38:53.519Z,99529.72
2022-09-15T15:41:24.201Z,99515.41
2022-09-15T15:44:10.257Z,99510.84
2022-09-15T15:47:20.222Z,99502.00
2022-09-15T15:50:11.696Z,99508.31
2022-09-15T15:52:35.748Z,99514.94
2022-09-15T15:55:04.684Z,99532.56
2022-09-15T15:57:38.103Z,99537.00
2022-09-15T16:00:24.957Z,99545.38
2022-09-15T16:02:53.207Z,99538.84
2022-09-15T16:05:25.203Z,99534.44
2022-09-15T16:07:56.070Z,99539.56
2022-09-15T16:10:30.535Z,99539.22
2022-09-15T16:12:58.230Z,99539.56
2022-09-15T16:15:26.902Z,99543.84
2022-09-15T16:17:54.508Z,99541.91
2022-09-15T16:20:26.569Z,99541.53
2022-09-15T16:22:54.721Z,99534.22
2022-09-15T16:25:36.793Z,99536.28
2022-09-15T16:28:04.865Z,99540.25
2022-09-15T16:30:34.036Z,99520.47
2022-09-15T16:33:02.039Z,99520.81
2022-09-15T16:35:43.560Z,99522.13
2022-09-15T16:38:11.876Z,99519.06
2022-09-15T16:40:40.080Z,99516.03
2022-09-15T16:43:14.933Z,99508.00
2022-09-15T16:45:43.955Z,99494.06
2022-09-15T16:48:11.989Z,99494.28
2022-09-15T16:50:50.120Z,99501.25
2022-09-15T16:53:21.455Z,99497.78
2022-09-15T16:55:53.056Z,99508.47
2022-09-15T16:58:22.391Z,99514.06
2022-09-15T17:00:52.495Z,99510.34
2022-09-15T17:03:22.147Z,99517.56
2022-09-15T17:05:52.255Z,99528.50
2022-09-15T17:08:27.143Z,99523.38
2022-09-15T17:10:57.451Z,99519.31
2022-09-15T17:13:29.511Z,99523.47
2022-09-15T17:15:59.578Z,99533.63
2022-09-15T17:18:28.454Z,99536.81
2022-09-15T17:20:56.298Z,99518.09
2022-09-15T17:23:27.718Z,99518.78
2022-09-15T17:25:58.985Z,99512.84
2022-09-15T17:28:28.893Z,99504.91
2022-09-15T17:30:59.670Z,99503.34
2022-09-15T17:33:28.825Z,99492.66
2022-09-15T17:35:58.366Z,99483.31
2022-09-15T17:38:26.565Z,99472.34
2022-09-15T17:40:58.716Z,99467.56
2022-09-15T17:43:29.800Z,99468.69
2022-09-15T17:45:58.366Z,99486.28
2022-09-15T17:48:26.510Z,99497.47
2022-09-15T17:50:54.000Z,99497.34
2022-09-15T17:53:26.554Z,99511.59
2022-09-15T17:55:55.404Z,99508.56
2022-09-15T17:58:29.875Z,99521.31
2022-09-15T18:00:58.271Z,99527.09
2022-09-15T18:03:30.407Z,99530.81
2022-09-15T18:05:59.953Z,99534.75
2022-09-15T18:08:27.877Z,99550.16
2022-09-15T18:10:55.702Z,99563.50
2022-09-15T18:13:26.862Z,99575.22
2022-09-15T18:15:54.970Z,99568.25
2022-09-15T18:18:25.496Z,99571.75
2022-09-15T18:20:55.680Z,99552.81
2022-09-15T18:23:25.621Z,99559.41
2022-09-15T18:25:53.025Z,99559.41
2022-09-15T18:28:20.908Z,99557.00
2022-09-15T18:30:49.828Z,99563.34
2022-09-15T18:33:23.579Z,99580.19
2022-09-15T18:35:54.192Z,99580.69
2022-09-15T18:38:23.403Z,99588.41
2022-09-15T18:40:55.409Z,99595.63
2022-09-15T18:43:26.296Z,99575.13
2022-09-15T18:46:01.501Z,99587.22
2022-09-15T18:48:29.640Z,99587.22
2022-09-15T18:50:58.701Z,99571.66
2022-09-15T18:53:26.639Z,99571.06
2022-09-15T18:55:54.068Z,99576.59
2022-09-15T18:58:22.671Z,99575.00
2022-09-15T19:00:50.223Z,99571.69
2022-09-15T19:03:17.615Z,99569.47
2022-09-15T19:05:45.955Z,99567.25
2022-09-15T19:08:13.483Z,99554.34
2022-09-15T19:10:43.804Z,99544.47
2022-09-15T19:13:13.865Z,99555.59
2022-09-15T19:15:41.714Z,99557.66
2022-09-15T19:18:09.113Z,99548.25
2022-09-15T19:20:37.485Z,99546.41
2022-09-15T19:23:05.365Z,99549.28
2022-09-15T19:25:33.545Z,99543.59
2022-09-15T19:28:02.105Z,99548.09
2022-09-15T19:30:30.115Z,99557.94
2022-09-15T19:32:58.136Z,99558.59
2022-09-15T19:35:26.857Z,99562.66
2022-09-15T19:37:54.303Z,99566.34
2022-09-15T19:40:23.773Z,99576.00
2022-09-15T19:42:51.671Z,99584.44
2022-09-15T19:45:19.087Z,99586.88
2022-09-15T19:47:46.551Z,99595.13
2022-09-15T19:50:15.097Z,99595.56
2022-09-15T19:52:42.716Z,99603.16
2022-09-15T19:55:10.477Z,99618.56
2022-09-15T19:57:40.405Z,99613.66
2022-09-15T20:00:10.688Z,99624.53
2022-09-15T20:02:39.431Z,99630.53
2022-09-15T20:05:07.910Z,99641.63
2022-09-15T20:07:36.403Z,99620.31
2022-09-15T20:10:06.299Z,99615.62
2022-09-15T20:12:33.768Z,99618.72
2022-09-15T20:15:02.436Z,99619.97
2022-09-15T20:17:30.698Z,99621.81
2022-09-15T20:19:58.884Z,99611.56
2022-09-15T20:22:26.813Z,99610.50
2022-09-15T20:24:56.335Z,99611.75
2022-09-15T20:27:24.228Z,99608.50
2022-09-15T20:29:52.232Z,99612.00
2022-09-15T20:32:22.804Z,99615.25
2022-09-15T20:34:52.648Z,99620.00
2022-09-15T20:37:22.254Z,99626.16
2022-09-15T20:39:51.227Z,99632.50
2022-09-15T20:42:18.906Z,99628.81
2022-09-15T20:44:46.541Z,99641.09
2022-09-15T20:47:13.956Z,99648.66
2022-09-15T20:49:41.463Z,99661.81
2022-09-15T20:52:09.410Z,99673.06
2022-09-15T20:54:37.306Z,99681.06
2022-09-15T20:57:05.236Z,99693.38
2022-09-15T20:59:34.960Z,99698.91
2022-09-15T21:02:05.088Z,99695.84
2022-09-15T21:04:33.259Z,99696.50
2022-09-15T21:07:00.881Z,99699.97
2022-09-15T21:09:28.789Z,99703.06
2022-09-15T21:11:56.505Z,99702.06
2022-09-15T21:14:24.437Z,99695.75
2022-09-15T21:16:51.827Z,99697.81
2022-09-15T21:19:19.624Z,99703.75
2022-09-15T21:21:46.956Z,99702.31
2022-09-15T21:24:14.297Z,99705.84
2022-09-15T21:27:00.909Z,99701.75
2022-09-15T21:29:29.452Z,99702.97
2022-09-15T21:31:57.750Z,99711.16
2022-09-15T21:34:26.274Z,99707.31
2022-09-15T21:36:53.870Z,99710.38
2022-09-15T21:39:21.560Z,99713.06
2022-09-15T21:41:49.743Z,99718.59
2022-09-15T21:44:17.147Z,99718.78
2022-09-15T21:46:47.162Z,99721.47
2022-09-15T21:49:14.772Z,99725.97
2022-09-15T21:51:43.202Z,99726.19
2022-09-15T21:54:11.364Z,99723.91
2022-09-15T21:56:39.899Z,99733.34
2022-09-15T21:59:10.576Z,99721.88
2022-09-15T22:01:40.178Z,99714.88
2022-09-15T22:04:09.896Z,99721.44
2022-09-15T22:06:40.583Z,99733.75
2022-09-15T22:09:14.886Z,99730.47
2022-09-15T22:11:42.793Z,99728.19
2022-09-15T22:14:11.591Z,99734.56
2022-09-15T22:16:41.650Z,99734.56
2022-09-15T22:19:11.514Z,99750.56
2022-09-15T22:21:41.778Z,99750.97
2022-09-15T22:24:12.737Z,99757.13
2022-09-15T22:26:42.466Z,99773.72
2022-09-15T22:29:10.869Z,99782.53
2022-09-15T22:31:38.238Z,99777.63
2022-09-15T22:34:05.985Z,99781.13
2022-09-15T22:36:33.692Z,99781.72
2022-09-15T22:39:06.070Z,99770.66
2022-09-15T22:41:37.080Z,99777.22
2022-09-15T22:44:06.627Z,99781.72
2022-09-15T22:46:34.896Z,99790.75
2022-09-15T22:49:02.896Z,99800.56
2022-09-15T22:51:30.825Z,99797.91
2022-09-15T22:53:59.310Z,99803.63
2022-09-15T22:56:26.967Z,99799.53
2022-09-15T22:58:56.655Z,99799.94
2022-09-15T23:01:27.914Z,99794.63
2022-09-15T23:03:58.632Z,99788.69
2022-09-15T23:06:29.014Z,99795.03
2022-09-15T23:08:59.507Z,99792.78
2022-09-15T23:11:28.833Z,99797.28
2022-09-15T23:13:56.523Z,99794.84
2022-09-15T23:16:25.060Z,99779.84
2022-09-15T23:18:53.757Z,99785.41
2022-09-15T23:21:22.540Z,99781.28
2022-09-15T23:23:52.755Z,99788.25
2022-09-15T23:26:22.022Z,99787.84
2022-09-15T23:28:50.481Z,99794.00
2022-09-15T23:31:19.402Z,99796.66
2022-09-15T23:33:48.321Z,99796.03
2022-09-15T23:36:19.560Z,99794.81
2022-09-15T23:38:49.317Z,99792.34
2022-09-15T23:41:17.679Z,99783.31
2022-09-15T23:43:46.413Z,99799.50
2022-09-15T23:46:15.043Z,99809.75
2022-09-15T23:48:42.911Z,99814.44
2022-09-15T23:51:10.599Z,99818.75
2022-09-15T23:53:38.480Z,99826.13
2022-09-15T23:56:06.192Z,99836.34
2022-09-15T23:58:33.927Z,99849.81
